Time;durP1;ratioP1;P1;durP2;ratioP2;P2;SDS_P1;SDS_P2;PMS_P1;PMS_P2;Temp;Humidity;BMP_temperature;BMP_pressure;BME280_temperature;BME280_humidity;BME280_pressure;Samples;Min_cycle;Max_cycle;Signal;HPM_P1;HPM_P2
2021/03/25 00:00:03;;;;;;;;;;;;;;;18.67;33.57;100368.75;4418074;32;19946;-46
2021/03/25 00:02:29;;;;;;;;;;;;;;;18.66;33.51;100365.25;4419040;32;19950;-47
2021/03/25 00:04:55;;;;;;;;;;;;;;;18.66;33.55;100359.06;4419507;32;19989;-49
2021/03/25 00:07:21;;;;;;;;;;;;;;;18.66;33.52;100374.88;4418883;32;19958;-51
2021/03/25 00:09:47;;;;;;;;;;;;;;;18.64;33.51;100371.34;4418979;32;19973;-48
2021/03/25 00:12:12;;;;;;;;;;;;;;;18.64;33.50;100371.34;4419092;32;19980;-48
2021/03/25 00:14:38;;;;;;;;;;;;;;;18.64;33.56;100366.06;4418829;32;19984;-52
2021/03/25 00:17:04;;;;;;;;;;;;;;;18.63;33.52;100370.44;4417105;32;20024;-46
2021/03/25 00:19:30;;;;;;;;;;;;;;;18.62;33.49;100367.78;4419277;32;20394;-48
2021/03/25 00:21:56;;;;;;;;;;;;;;;18.64;33.50;100360.78;4418498;32;19968;-50
2021/03/25 00:24:22;;;;;;;;;;;;;;;18.64;33.41;100355.50;4418420;32;20483;-51
2021/03/25 00:26:48;;;;;;;;;;;;;;;18.62;33.41;100362.50;4418598;32;19946;-57
2021/03/25 00:29:14;;;;;;;;;;;;;;;18.65;33.35;100360.81;4417841;32;19985;-48
2021/03/25 00:31:40;;;;;;;;;;;;;;;18.61;33.46;100353.69;4418261;32;19954;-47
2021/03/25 00:34:06;;;;;;;;;;;;;;;18.62;33.39;100351.97;4418255;32;19958;-48
2021/03/25 00:36:31;;;;;;;;;;;;;;;18.62;33.38;100355.47;4418066;32;19950;-50
2021/03/25 00:38:58;;;;;;;;;;;;;;;18.60;33.38;100351.91;4417820;32;19974;-49
2021/03/25 00:41:24;;;;;;;;;;;;;;;18.61;33.40;100350.19;4418607;32;19939;-47
2021/03/25 00:43:50;;;;;;;;;;;;;;;18.58;33.44;100344.81;4418097;32;19957;-49
2021/03/25 00:46:16;;;;;;;;;;;;;;;18.59;33.39;100341.34;4417662;32;19954;-50
2021/03/25 00:48:42;;;;;;;;;;;;;;;18.58;33.43;100350.09;4417999;32;19946;-51
2021/03/25 00:51:08;;;;;;;;;;;;;;;18.59;33.34;100346.63;4418638;32;19946;-48
2021/03/25 00:53:34;;;;;;;;;;;;;;;18.57;33.40;100341.31;4417907;32;19995;-46
2021/03/25 00:56:00;;;;;;;;;;;;;;;18.57;33.42;100337.78;4418029;32;19960;-49
2021/03/25 00:58:25;;;;;;;;;;;;;;;18.56;33.37;100343.91;4416905;32;19942;-51
2021/03/25 01:00:51;;;;;;;;;;;;;;;18.56;33.40;100343.91;4417884;32;19965;-50
2021/03/25 01:03:17;;;;;;;;;;;;;;;18.58;33.31;100344.81;4417486;32;20395;-50
2021/03/25 01:05:43;;;;;;;;;;;;;;;18.59;33.29;100346.63;4419213;32;19954;-48
2021/03/25 01:08:09;;;;;;;;;;;;;;;18.58;33.28;100344.81;4417768;32;19957;-47
2021/03/25 01:10:35;;;;;;;;;;;;;;;18.54;33.28;100339.50;4416911;32;20324;-48
2021/03/25 01:13:01;;;;;;;;;;;;;;;18.53;33.36;100331.56;4418081;32;19958;-54
2021/03/25 01:15:27;;;;;;;;;;;;;;;18.52;33.33;100333.31;4416498;32;19950;-51
2021/03/25 01:17:52;;;;;;;;;;;;;;;18.51;33.31;100328.91;4417595;32;19954;-48
2021/03/25 01:20:18;;;;;;;;;;;;;;;18.52;33.31;100335.03;4417791;32;19954;-48
2021/03/25 01:22:44;;;;;;;;;;;;;;;18.51;33.34;100323.62;4417478;32;20437;-48
2021/03/25 01:25:10;;;;;;;;;;;;;;;18.47;33.42;100332.34;4404172;32;19950;-50
2021/03/25 01:27:36;;;;;;;;;;;;;;;18.49;33.36;100327.09;4401607;32;20317;-50
2021/03/25 01:30:02;;;;;;;;;;;;;;;18.50;33.37;100327.12;4413250;32;19950;-49
2021/03/25 01:32:28;;;;;;;;;;;;;;;18.47;33.34;100326.16;4416172;32;21597;-49
2021/03/25 01:34:54;;;;;;;;;;;;;;;18.44;33.40;100324.34;4417592;32;19982;-48
2021/03/25 01:37:20;;;;;;;;;;;;;;;18.44;33.36;100315.56;4417524;32;19984;-56
2021/03/25 01:39:45;;;;;;;;;;;;;;;18.46;33.32;100316.47;4417946;32;20062;-47
2021/03/25 01:42:12;;;;;;;;;;;;;;;18.46;33.30;100319.13;4417747;32;20008;-50
2021/03/25 01:44:38;;;;;;;;;;;;;;;18.42;33.35;100307.63;4416824;32;19992;-53
2021/03/25 01:47:03;;;;;;;;;;;;;;;18.43;33.34;100309.41;4416591;32;20367;-52
2021/03/25 01:49:29;;;;;;;;;;;;;;;18.43;33.32;100304.13;4417572;32;19962;-50
2021/03/25 01:51:55;;;;;;;;;;;;;;;18.38;33.39;100305.78;4417662;32;20302;-48
2021/03/25 01:54:21;;;;;;;;;;;;;;;18.34;33.40;100301.31;4412004;32;19951;-53
2021/03/25 01:56:47;;;;;;;;;;;;;;;18.30;33.53;100302.09;4402214;32;19946;-56
2021/03/25 01:59:13;;;;;;;;;;;;;;;18.35;33.46;100300.47;4404652;32;19984;-47
2021/03/25 02:01:39;;;;;;;;;;;;;;;18.36;33.34;100302.25;4416944;32;19961;-47
2021/03/25 02:04:05;;;;;;;;;;;;;;;18.34;33.37;100294.28;4416486;32;19996;-47
2021/03/25 02:06:30;;;;;;;;;;;;;;;18.31;33.49;100294.25;4417946;32;19952;-48
2021/03/25 02:08:56;;;;;;;;;;;;;;;18.31;33.41;100293.34;4416413;32;20007;-49
2021/03/25 02:11:22;;;;;;;;;;;;;;;18.27;33.51;100289.75;4416746;32;21160;-48
2021/03/25 02:13:48;;;;;;;;;;;;;;;18.22;33.64;100287.03;4416763;32;19946;-46
2021/03/25 02:16:14;;;;;;;;;;;;;;;18.29;33.43;100289.78;4416432;32;19985;-50
2021/03/25 02:18:40;;;;;;;;;;;;;;;18.31;33.38;100282.78;4416599;32;19954;-48
2021/03/25 02:21:06;;;;;;;;;;;;;;;18.24;33.48;100280.06;4417202;32;19938;-50
2021/03/25 02:23:32;;;;;;;;;;;;;;;18.29;33.49;100280.16;4417359;32;19958;-49
2021/03/25 02:25:58;;;;;;;;;;;;;;;18.28;33.39;100282.75;4417279;32;19965;-51
2021/03/25 02:28:24;;;;;;;;;;;;;;;18.26;33.42;100280.97;4415997;32;19954;-51
2021/03/25 02:30:50;;;;;;;;;;;;;;;18.25;33.36;100279.19;4416709;32;19951;-52
2021/03/25 02:33:16;;;;;;;;;;;;;;;18.20;33.50;100280.81;4416153;32;19958;-46
2021/03/25 02:35:42;;;;;;;;;;;;;;;18.10;33.63;100278.91;4415818;32;19973;-53
2021/03/25 02:38:07;;;;;;;;;;;;;;;18.16;33.48;100275.50;4416495;32;19966;-48
2021/03/25 02:40:33;;;;;;;;;;;;;;;18.19;33.50;100271.16;4416999;32;19961;-53
2021/03/25 02:42:59;;;;;;;;;;;;;;;18.18;33.47;100279.03;4416909;32;20292;-49
2021/03/25 02:45:25;;;;;;;;;;;;;;;18.11;33.59;100276.28;4416182;32;19977;-48
2021/03/25 02:47:51;;;;;;;;;;;;;;;18.11;33.62;100280.66;4419968;32;19958;-51
2021/03/25 02:50:17;;;;;;;;;;;;;;;18.06;33.71;100282.31;4419283;32;20461;-53
2021/03/25 02:52:43;;;;;;;;;;;;;;;17.97;33.85;100275.97;4420630;32;20005;-47
2021/03/25 02:55:09;;;;;;;;;;;;;;;18.00;33.83;100282.16;4416061;32;19951;-53
2021/03/25 02:57:35;;;;;;;;;;;;;;;18.02;33.76;100275.16;4404533;32;20346;-49
2021/03/25 03:00:01;;;;;;;;;;;;;;;18.05;33.70;100275.25;4406190;32;19978;-52
2021/03/25 03:02:27;;;;;;;;;;;;;;;18.07;33.58;100276.16;4419747;32;19969;-46
2021/03/25 03:04:52;;;;;;;;;;;;;;;17.98;33.80;100275.13;4419125;32;19970;-50
2021/03/25 03:07:18;;;;;;;;;;;;;;;17.90;33.80;100268.78;4404074;32;19970;-50
2021/03/25 03:09:44;;;;;;;;;;;;;;;17.92;33.91;100267.06;4404350;32;20428;-47
2021/03/25 03:12:10;;;;;;;;;;;;;;;17.90;33.89;100275.78;4418963;32;19947;-49
2021/03/25 03:14:36;;;;;;;;;;;;;;;17.90;33.96;100266.16;4419705;32;19950;-49
2021/03/25 03:17:02;;;;;;;;;;;;;;;17.94;33.93;100267.97;4418433;32;19961;-53
2021/03/25 03:19:28;;;;;;;;;;;;;;;17.90;33.87;100270.50;4418555;32;20581;-47
2021/03/25 03:21:54;;;;;;;;;;;;;;;17.84;33.90;100266.91;4418590;32;19954;-51
2021/03/25 03:24:20;;;;;;;;;;;;;;;17.85;34.00;100267.81;4419365;32;20327;-49
2021/03/25 03:26:45;;;;;;;;;;;;;;;17.83;33.97;100266.88;4417911;32;19965;-48
2021/03/25 03:29:11;;;;;;;;;;;;;;;17.90;33.86;100263.53;4418097;32;19958;-47
2021/03/25 03:31:38;;;;;;;;;;;;;;;17.86;33.95;100271.31;4417463;32;20010;-53
2021/03/25 03:34:03;;;;;;;;;;;;;;;17.83;34.00;100269.50;4416712;32;20019;-49
2021/03/25 03:36:29;;;;;;;;;;;;;;;17.87;33.87;100260.81;4418836;32;19958;-49
2021/03/25 03:38:55;;;;;;;;;;;;;;;17.81;34.10;100260.69;4418992;32;19958;-51
2021/03/25 03:41:21;;;;;;;;;;;;;;;17.82;34.03;100267.72;4419494;32;20259;-48
2021/03/25 03:43:47;;;;;;;;;;;;;;;17.92;33.81;100263.56;4418185;32;19969;-53
2021/03/25 03:46:13;;;;;;;;;;;;;;;17.88;33.86;100270.50;4417131;32;19984;-49
2021/03/25 03:48:39;;;;;;;;;;;;;;;17.88;33.80;100259.06;4419135;32;19950;-48
2021/03/25 03:51:05;;;;;;;;;;;;;;;17.88;33.82;100262.59;4418875;32;19981;-47
2021/03/25 03:53:31;;;;;;;;;;;;;;;17.81;33.87;100255.41;4417255;32;20352;-49
2021/03/25 03:55:56;;;;;;;;;;;;;;;17.83;33.92;100258.97;4415696;32;20001;-47
2021/03/25 03:58:22;;;;;;;;;;;;;;;17.84;34.03;100258.09;4403530;32;19981;-53
2021/03/25 04:00:48;;;;;;;;;;;;;;;17.85;33.93;100259.91;4403818;32;19973;-54
2021/03/25 04:03:14;;;;;;;;;;;;;;;17.80;33.92;100256.28;4418250;32;20000;-50
2021/03/25 04:05:40;;;;;;;;;;;;;;;17.77;34.00;100253.59;4418264;32;20240;-49
2021/03/25 04:08:06;;;;;;;;;;;;;;;17.73;34.09;100254.37;4402036;32;19935;-47
2021/03/25 04:10:32;;;;;;;;;;;;;;;17.70;34.20;100257.84;4403422;32;20045;-50
2021/03/25 04:13:01;;;;;;;;;;;;;;;17.74;34.03;100256.16;4417445;32;19954;-50
2021/03/25 04:15:27;;;;;;;;;;;;;;;17.80;33.77;100254.53;4417640;32;19961;-50
2021/03/25 04:17:53;;;;;;;;;;;;;;;17.78;33.92;100251.00;4418124;32;19951;-47
2021/03/25 04:20:18;;;;;;;;;;;;;;;17.76;34.01;100252.69;4417590;32;19946;-47
2021/03/25 04:22:45;;;;;;;;;;;;;;;17.82;33.97;100260.72;4418951;32;20349;-53
2021/03/25 04:25:10;;;;;;;;;;;;;;;17.71;34.10;100249.06;4418475;32;20298;-52
2021/03/25 04:27:36;;;;;;;;;;;;;;;17.65;34.27;100247.19;4418299;32;19950;-52
2021/03/25 04:30:02;;;;;;;;;;;;;;;17.69;34.18;100246.38;4416710;32;19962;-47
2021/03/25 04:32:28;;;;;;;;;;;;;;;17.72;34.05;100247.31;4417737;32;19978;-51
2021/03/25 04:34:54;;;;;;;;;;;;;;;17.67;34.23;100252.50;4418048;32;20414;-52
2021/03/25 04:37:20;;;;;;;;;;;;;;;17.65;34.16;100255.09;4405254;32;19954;-50
2021/03/25 04:39:46;;;;;;;;;;;;;;;17.62;34.15;100255.03;4402862;32;19981;-49
2021/03/25 04:42:12;;;;;;;;;;;;;;;17.65;34.18;100255.09;4403286;32;19965;-52
2021/03/25 04:44:37;;;;;;;;;;;;;;;17.69;34.06;100254.28;4416155;32;19950;-48
2021/03/25 04:47:03;;;;;;;;;;;;;;;17.69;33.98;100261.31;4414919;32;19950;-47
2021/03/25 04:49:29;;;;;;;;;;;;;;;17.73;33.91;100257.03;4416229;32;19958;-49
2021/03/25 04:51:55;;;;;;;;;;;;;;;17.70;34.02;100258.69;4416764;32;19946;-51
2021/03/25 04:54:21;;;;;;;;;;;;;;;17.66;34.23;100250.72;4415395;32;19961;-53
2021/03/25 04:56:47;;;;;;;;;;;;;;;17.71;34.08;100259.59;4417070;32;19970;-50
2021/03/25 04:59:13;;;;;;;;;;;;;;;17.67;34.02;100257.78;4417425;32;19958;-53
2021/03/25 05:01:39;;;;;;;;;;;;;;;17.66;34.08;100256.88;4418276;32;19950;-48
2021/03/25 05:04:05;;;;;;;;;;;;;;;17.61;34.22;100260.25;4417937;32;19994;-48
2021/03/25 05:06:30;;;;;;;;;;;;;;;17.60;34.20;100256.75;4418102;32;19958;-48
2021/03/25 05:08:56;;;;;;;;;;;;;;;17.54;34.34;100248.69;4402425;32;20359;-52
2021/03/25 05:11:23;;;;;;;;;;;;;;;17.62;34.17;100248.88;4402401;32;20021;-55
2021/03/25 05:13:49;;;;;;;;;;;;;;;17.55;34.40;100258.38;4402595;32;19980;-50
2021/03/25 05:16:14;;;;;;;;;;;;;;;17.58;34.10;100255.81;4401743;32;20002;-47
2021/03/25 05:18:40;;;;;;;;;;;;;;;17.65;34.09;100259.47;4410434;32;19954;-49
2021/03/25 05:21:06;;;;;;;;;;;;;;;17.56;34.20;100254.88;4417302;32;20330;-52
2021/03/25 05:23:32;;;;;;;;;;;;;;;17.46;34.41;100256.44;4417109;32;20006;-50
2021/03/25 05:25:58;;;;;;;;;;;;;;;17.57;34.22;100256.66;4417511;32;20005;-47
2021/03/25 05:28:24;;;;;;;;;;;;;;;17.54;34.36;100265.41;4415799;32;21306;-51
2021/03/25 05:30:50;;;;;;;;;;;;;;;17.64;34.17;100261.22;4404975;32;19965;-47
2021/03/25 05:33:16;;;;;;;;;;;;;;;17.58;34.34;100257.56;4417065;32;19981;-49
2021/03/25 05:35:42;;;;;;;;;;;;;;;17.44;34.65;100265.13;4403245;32;20006;-53
2021/03/25 05:38:08;;;;;;;;;;;;;;;17.38;34.77;100261.53;4412247;32;20314;-51
2021/03/25 05:40:34;;;;;;;;;;;;;;;17.32;34.93;100261.37;4419152;32;19951;-51
2021/03/25 05:42:59;;;;;;;;;;;;;;;17.31;34.99;100262.22;4419129;32;20290;-47
2021/03/25 05:45:25;;;;;;;;;;;;;;;17.33;34.93;100257.87;4416994;32;19962;-49
2021/03/25 05:47:51;;;;;;;;;;;;;;;17.39;34.83;100258.03;4416071;32;19958;-48
2021/03/25 05:50:18;;;;;;;;;;;;;;;17.29;35.10;100256.03;4417165;32;19983;-49
2021/03/25 05:52:43;;;;;;;;;;;;;;;17.27;35.04;100257.75;4417947;32;19950;-46
2021/03/25 05:55:09;;;;;;;;;;;;;;;17.22;35.22;100262.00;4418213;32;19987;-47
2021/03/25 05:57:35;;;;;;;;;;;;;;;17.16;35.40;100268.00;4417640;32;19966;-55
2021/03/25 06:00:01;;;;;;;;;;;;;;;16.94;35.80;100263.94;4417881;32;20307;-51
2021/03/25 06:02:27;;;;;;;;;;;;;;;17.12;35.44;100267.06;4415597;32;20039;-48
2021/03/25 06:04:53;;;;;;;;;;;;;;;17.31;35.09;100270.13;4415790;32;19986;-55
2021/03/25 06:07:19;;;;;;;;;;;;;;;17.16;35.45;100267.13;4400123;32;19970;-46
2021/03/25 06:09:45;;;;;;;;;;;;;;;17.26;35.25;100279.66;4390532;32;20028;-48
2021/03/25 06:12:11;;;;;;;;;;;;;;;17.22;35.36;100275.16;4385152;32;19950;-50
2021/03/25 06:14:37;;;;;;;;;;;;;;;17.11;35.61;100281.09;4397442;32;20361;-48
2021/03/25 06:17:03;;;;;;;;;;;;;;;17.09;35.73;100280.13;4400592;32;19959;-50
2021/03/25 06:19:29;;;;;;;;;;;;;;;16.98;35.97;100284.22;4410763;32;20623;-50
2021/03/25 06:21:54;;;;;;;;;;;;;;;17.08;35.79;100282.75;4416089;32;19954;-47
2021/03/25 06:24:20;;;;;;;;;;;;;;;17.27;35.45;100289.34;4415910;32;20321;-48
2021/03/25 06:26:46;;;;;;;;;;;;;;;17.38;35.21;100287.84;4417351;32;19983;-48
2021/03/25 06:29:12;;;;;;;;;;;;;;;17.38;35.10;100292.22;4416172;32;19972;-54
2021/03/25 06:31:38;;;;;;;;;;;;;;;17.31;35.24;100291.19;4417327;32;20005;-53
2021/03/25 06:34:04;;;;;;;;;;;;;;;17.24;35.44;100287.50;4415755;32;20018;-48
2021/03/25 06:36:30;;;;;;;;;;;;;;;17.12;35.67;100290.75;4416582;32;19965;-48
2021/03/25 06:38:56;;;;;;;;;;;;;;;17.31;35.29;100293.81;4410982;32;19958;-51
2021/03/25 06:41:22;;;;;;;;;;;;;;;17.36;35.23;100302.72;4401727;32;20270;-50
2021/03/25 06:43:48;;;;;;;;;;;;;;;17.40;35.14;100307.19;4404303;32;19969;-57
2021/03/25 06:46:14;;;;;;;;;;;;;;;17.39;35.14;100300.16;4411934;32;19961;-52
2021/03/25 06:48:39;;;;;;;;;;;;;;;17.50;34.90;100297.75;4414878;32;19949;-52
2021/03/25 06:51:06;;;;;;;;;;;;;;;17.66;34.52;100301.63;4415459;32;19958;-49
2021/03/25 06:53:32;;;;;;;;;;;;;;;17.69;34.42;100309.59;4415122;32;19958;-47
2021/03/25 06:55:58;;;;;;;;;;;;;;;17.77;34.36;100311.53;4401201;32;20000;-48
2021/03/25 06:58:25;;;;;;;;;;;;;;;17.74;34.34;100306.19;4399529;32;19954;-48
2021/03/25 07:00:51;;;;;;;;;;;;;;;17.77;34.32;100311.53;4413630;32;19954;-48
2021/03/25 07:03:17;;;;;;;;;;;;;;;17.69;34.45;100309.59;4414878;32;19968;-53
2021/03/25 07:05:45;;;;;;;;;;;;;;;17.58;34.71;100312.84;4415293;32;19965;-55
2021/03/25 07:08:11;;;;;;;;;;;;;;;17.56;34.75;100315.44;4414002;32;20380;-47
2021/03/25 07:10:37;;;;;;;;;;;;;;;17.53;34.95;100320.66;4415800;32;19958;-50
2021/03/25 07:13:05;;;;;;;;;;;;;;;17.55;34.96;100321.56;4414539;32;20303;-52
2021/03/25 07:15:31;;;;;;;;;;;;;;;17.53;35.00;100324.19;4415164;32;19984;-48
2021/03/25 07:17:57;;;;;;;;;;;;;;;17.48;35.16;100317.03;4414764;32;19969;-49
2021/03/25 07:20:23;;;;;;;;;;;;;;;17.46;35.26;100323.97;4415778;32;20103;-51
2021/03/25 07:22:49;;;;;;;;;;;;;;;17.48;35.19;100319.66;4415601;32;20013;-50
2021/03/25 07:25:15;;;;;;;;;;;;;;;17.34;35.54;100317.56;4414928;32;20366;-52
2021/03/25 07:27:41;;;;;;;;;;;;;;;17.34;35.58;100325.47;4415343;32;19981;-51
2021/03/25 07:30:07;;;;;;;;;;;;;;;17.44;35.43;100320.44;4414064;32;19988;-46
2021/03/25 07:32:34;;;;;;;;;;;;;;;17.39;35.56;100313.31;4415698;32;19990;-48
2021/03/25 07:35:00;;;;;;;;;;;;;;;17.47;35.44;100317.84;4418672;32;20282;-54
2021/03/25 07:37:26;;;;;;;;;;;;;;;17.31;35.77;100322.75;4416213;32;19991;-48
2021/03/25 07:39:51;;;;;;;;;;;;;;;17.25;35.89;100322.63;4418067;32;19950;-51
2021/03/25 07:42:17;;;;;;;;;;;;;;;17.22;35.99;100325.16;4417713;32;20014;-51
2021/03/25 07:44:43;;;;;;;;;;;;;;;17.39;35.78;100331.75;4417125;32;20011;-50
2021/03/25 07:47:09;;;;;;;;;;;;;;;17.43;35.68;100324.81;4417407;32;19984;-48
2021/03/25 07:49:38;;;;;;;;;;;;;;;17.56;35.48;100326.88;4418734;32;19977;-49
2021/03/25 07:52:05;;;;;;;;;;;;;;;17.55;35.49;100326.84;4417589;32;19968;-52
2021/03/25 07:54:32;;;;;;;;;;;;;;;17.68;35.25;100323.62;4418546;32;20013;-47
2021/03/25 07:56:58;;;;;;;;;;;;;;;17.70;35.18;100327.19;4402112;32;20352;-49
2021/03/25 07:59:24;;;;;;;;;;;;;;;17.71;35.20;100335.97;4416419;32;20534;-51
2021/03/25 08:01:50;;;;;;;;;;;;;;;17.80;35.04;100337.94;4417749;32;19968;-51
2021/03/25 08:04:16;;;;;;;;;;;;;;;17.86;34.92;100340.72;4417133;32;20369;-53
2021/03/25 08:06:42;;;;;;;;;;;;;;;17.92;34.84;100342.59;4416679;32;20015;-53
2021/03/25 08:09:08;;;;;;;;;;;;;;;17.96;34.76;100340.06;4417287;32;19999;-52
2021/03/25 08:11:34;;;;;;;;;;;;;;;17.93;34.79;100345.25;4418574;32;19950;-52
2021/03/25 08:14:00;;;;;;;;;;;;;;;17.97;34.74;100341.84;4417117;32;19969;-50
2021/03/25 08:16:26;;;;;;;;;;;;;;;17.97;34.93;100346.22;4416611;32;19977;-51
2021/03/25 08:18:53;;;;;;;;;;;;;;;17.95;34.90;100340.03;4417969;32;19972;-47
2021/03/25 08:21:18;;;;;;;;;;;;;;;18.01;34.85;100347.16;4417611;32;20019;-53
2021/03/25 08:23:44;;;;;;;;;;;;;;;18.06;34.76;100338.53;4417251;32;19985;-51
2021/03/25 08:26:10;;;;;;;;;;;;;;;18.03;34.86;100338.50;4417065;32;19950;-51
2021/03/25 08:28:37;;;;;;;;;;;;;;;18.04;34.88;100339.34;4415413;32;20278;-51
2021/03/25 08:31:03;;;;;;;;;;;;;;;18.03;34.90;100334.94;4416079;32;19961;-53
2021/03/25 08:33:29;;;;;;;;;;;;;;;18.00;35.07;100342.75;4416572;32;19970;-51
2021/03/25 08:35:55;;;;;;;;;;;;;;;17.88;35.28;100336.38;4417294;32;20001;-56
2021/03/25 08:38:21;;;;;;;;;;;;;;;17.79;35.48;100337.06;4415498;32;19950;-51
2021/03/25 08:40:47;;;;;;;;;;;;;;;17.87;35.41;100331.97;4416655;32;19973;-51
2021/03/25 08:43:12;;;;;;;;;;;;;;;18.02;35.14;100333.13;4416643;32;20869;-52
2021/03/25 08:45:38;;;;;;;;;;;;;;;17.78;35.74;100334.38;4416232;32;19954;-50
2021/03/25 08:48:04;;;;;;;;;;;;;;;17.83;35.62;100343.25;4415193;32;19998;-49
2021/03/25 08:50:30;;;;;;;;;;;;;;;18.06;35.16;100341.19;4416777;32;19966;-51
2021/03/25 08:52:56;;;;;;;;;;;;;;;18.03;35.26;100346.41;4415565;32;19955;-54
2021/03/25 08:55:22;;;;;;;;;;;;;;;18.14;35.02;100349.25;4415144;32;19954;-48
2021/03/25 08:57:48;;;;;;;;;;;;;;;18.19;34.93;100344.06;4415999;32;19976;-52
2021/03/25 09:00:13;;;;;;;;;;;;;;;18.23;34.88;100340.62;4417072;32;19965;-48
2021/03/25 09:02:39;;;;;;;;;;;;;;;18.34;34.70;100340.88;4416704;32;20347;-48
2021/03/25 09:05:05;;;;;;;;;;;;;;;18.31;34.75;100338.16;4416947;32;19958;-51
2021/03/25 09:07:31;;;;;;;;;;;;;;;18.35;34.71;100342.66;4416729;32;19955;-49
2021/03/25 09:09:57;;;;;;;;;;;;;;;18.34;34.71;100346.16;4418355;32;20309;-50
2021/03/25 09:12:23;;;;;;;;;;;;;;;18.36;34.76;100344.44;4417969;32;20048;-50
2021/03/25 09:14:49;;;;;;;;;;;;;;;18.36;34.82;100344.44;4417356;32;19968;-52
2021/03/25 09:17:15;;;;;;;;;;;;;;;18.43;34.65;100343.66;4417118;32;19993;-49
2021/03/25 09:19:41;;;;;;;;;;;;;;;18.51;34.51;100339.44;4418424;32;20294;-50
2021/03/25 09:22:07;;;;;;;;;;;;;;;18.51;34.50;100339.44;4417528;32;19954;-51
2021/03/25 09:24:33;;;;;;;;;;;;;;;18.52;34.55;100342.97;4418347;32;19954;-54
2021/03/25 09:26:59;;;;;;;;;;;;;;;18.47;34.67;100355.19;4411650;32;19965;-51
2021/03/25 09:29:25;;;;;;;;;;;;;;;18.43;34.73;100343.66;4405474;32;19975;-51
2021/03/25 09:31:51;;;;;;;;;;;;;;;18.43;34.75;100335.75;4417688;32;19958;-51
2021/03/25 09:34:17;;;;;;;;;;;;;;;18.32;34.98;100340.84;4416186;32;19965;-52
2021/03/25 09:36:43;;;;;;;;;;;;;;;18.17;35.42;100341.41;4414142;32;19954;-48
2021/03/25 09:39:09;;;;;;;;;;;;;;;18.32;35.15;100337.28;4401161;32;19998;-54
2021/03/25 09:41:35;;;;;;;;;;;;;;;18.37;35.06;100333.03;4404187;32;19951;-53
2021/03/25 09:44:01;;;;;;;;;;;;;;;18.30;35.22;100328.47;4416497;32;20010;-49
2021/03/25 09:46:27;;;;;;;;;;;;;;;18.24;35.37;100330.12;4416763;32;19995;-51
2021/03/25 09:48:53;;;;;;;;;;;;;;;18.25;35.43;100331.91;4416876;32;19949;-50
2021/03/25 09:51:19;;;;;;;;;;;;;;;18.07;35.67;100328.87;4417265;32;19983;-50
2021/03/25 09:53:44;;;;;;;;;;;;;;;18.11;35.64;100334.25;4416978;32;19994;-53
2021/03/25 09:56:11;;;;;;;;;;;;;;;18.26;35.40;100332.78;4417115;32;19968;-52
2021/03/25 09:58:36;;;;;;;;;;;;;;;18.41;35.29;100340.12;4416913;32;19962;-52
2021/03/25 10:01:02;;;;;;;;;;;;;;;18.43;35.21;100324.34;4415735;32;19964;-49
2021/03/25 10:03:28;;;;;;;;;;;;;;;18.43;35.21;100327.84;4414418;32;19993;-52
2021/03/25 10:05:54;;;;;;;;;;;;;;;18.31;35.67;100325.88;4417425;32;19987;-49
2021/03/25 10:08:21;;;;;;;;;;;;;;;18.59;35.06;100329.03;4415316;32;20323;-49
2021/03/25 10:10:47;;;;;;;;;;;;;;;18.65;34.96;100325.63;4405110;32;20006;-55
2021/03/25 10:13:17;;;;;;;;;;;;;;;18.64;35.11;100331.78;4407575;32;19965;-50
2021/03/25 10:15:43;;;;;;;;;;;;;;;18.70;35.06;100329.22;4416069;32;19977;-54
2021/03/25 10:18:09;;;;;;;;;;;;;;;18.62;35.31;100330.84;4414533;32;19974;-53
2021/03/25 10:20:34;;;;;;;;;;;;;;;18.75;35.01;100332.88;4416536;32;20022;-56
2021/03/25 10:23:00;;;;;;;;;;;;;;;18.85;34.82;100312.81;4416213;32;19934;-53
2021/03/25 10:25:27;;;;;;;;;;;;;;;18.88;34.76;100325.16;4416597;32;19954;-56
2021/03/25 10:27:52;;;;;;;;;;;;;;;18.89;34.83;100324.31;4413908;32;19992;-53
2021/03/25 10:30:18;;;;;;;;;;;;;;;18.58;35.48;100329.00;4416742;32;19961;-53
2021/03/25 10:32:44;;;;;;;;;;;;;;;18.78;35.07;100327.63;4416902;32;19989;-52
2021/03/25 10:35:10;;;;;;;;;;;;;;;18.99;34.72;100323.59;4416093;32;20003;-50
2021/03/25 10:37:36;;;;;;;;;;;;;;;18.97;34.69;100325.34;4415709;32;19954;-58
2021/03/25 10:40:02;;;;;;;;;;;;;;;18.95;34.75;100320.03;4416526;32;19964;-55
2021/03/25 10:42:28;;;;;;;;;;;;;;;18.99;34.83;100317.44;4416275;32;20011;-54
2021/03/25 10:44:54;;;;;;;;;;;;;;;18.93;34.96;100316.47;4417068;32;20014;-54
2021/03/25 10:47:20;;;;;;;;;;;;;;;18.96;34.96;100319.16;4415396;32;20330;-56
2021/03/25 10:49:46;;;;;;;;;;;;;;;18.91;35.01;100322.56;4416752;32;19954;-56
2021/03/25 10:52:12;;;;;;;;;;;;;;;18.88;35.05;100318.13;4415706;32;19955;-58
2021/03/25 10:54:38;;;;;;;;;;;;;;;18.82;35.24;100316.25;4416461;32;19992;-59
2021/03/25 10:57:04;;;;;;;;;;;;;;;19.00;34.88;100312.22;4415027;32;19954;-58
2021/03/25 10:59:30;;;;;;;;;;;;;;;19.01;34.81;100303.44;4415736;32;19962;-55
2021/03/25 11:01:56;;;;;;;;;;;;;;;19.00;34.90;100306.03;4414853;32;20429;-57
2021/03/25 11:04:22;;;;;;;;;;;;;;;19.03;34.88;100309.62;4416688;32;19950;-57
2021/03/25 11:06:48;;;;;;;;;;;;;;;17.76;37.32;100309.75;4416707;32;19954;-54
2021/03/25 11:09:14;;;;;;;;;;;;;;;18.05;36.89;100313.06;4418452;32;19958;-54
2021/03/25 11:11:40;;;;;;;;;;;;;;;18.41;36.18;100311.13;4419995;32;19972;-55
2021/03/25 11:14:06;;;;;;;;;;;;;;;18.56;35.88;100309.62;4417535;32;19987;-52
2021/03/25 11:16:32;;;;;;;;;;;;;;;18.68;35.60;100308.13;4417015;32;19968;-54
2021/03/25 11:18:58;;;;;;;;;;;;;;;18.78;35.38;100306.53;4418546;32;19953;-52
2021/03/25 11:21:24;;;;;;;;;;;;;;;18.85;35.26;100311.94;4419581;32;19973;-57
2021/03/25 11:23:50;;;;;;;;;;;;;;;18.86;35.22;100303.16;4418797;32;19973;-54
2021/03/25 11:26:16;;;;;;;;;;;;;;;18.88;35.18;100304.94;4419336;32;19995;-55
2021/03/25 11:28:42;;;;;;;;;;;;;;;18.92;35.13;100308.53;4418900;32;19949;-57
2021/03/25 11:31:08;;;;;;;;;;;;;;;18.95;35.07;100305.94;4419272;32;20299;-58
2021/03/25 11:33:34;;;;;;;;;;;;;;;18.95;35.04;100295.38;4416133;32;19966;-56
2021/03/25 11:36:00;;;;;;;;;;;;;;;18.96;35.01;100295.41;4404406;32;19981;-54
2021/03/25 11:38:25;;;;;;;;;;;;;;;18.95;35.01;100288.34;4404828;32;20606;-56
2021/03/25 11:40:51;;;;;;;;;;;;;;;18.95;35.10;100287.44;4419003;32;19950;-54
2021/03/25 11:43:17;;;;;;;;;;;;;;;18.95;35.12;100288.34;4419583;32;19993;-53
2021/03/25 11:45:45;;;;;;;;;;;;;;;18.95;35.24;100292.72;4404590;32;19951;-54
2021/03/25 11:48:10;;;;;;;;;;;;;;;18.96;35.24;100279.56;4403314;32;20008;-54
2021/03/25 11:50:36;;;;;;;;;;;;;;;18.98;35.23;100298.09;4417873;32;19957;-54
2021/03/25 11:53:02;;;;;;;;;;;;;;;19.00;35.23;100285.84;4419546;32;19950;-54
2021/03/25 11:55:28;;;;;;;;;;;;;;;19.01;35.30;100292.88;4417105;32;20029;-56
2021/03/25 11:57:55;;;;;;;;;;;;;;;19.03;35.29;100283.22;4416922;32;20343;-59
2021/03/25 12:00:21;;;;;;;;;;;;;;;18.65;35.58;100291.34;4418045;32;19946;-54
2021/03/25 12:02:47;;;;;;;;;;;;;;;18.15;36.97;100287.75;4419344;32;19956;-54
2021/03/25 12:05:12;;;;;;;;;;;;;;;18.36;36.72;100286.44;4408884;32;19981;-54
2021/03/25 12:07:39;;;;;;;;;;;;;;;18.60;36.23;100282.47;4398652;32;19958;-55
2021/03/25 12:10:04;;;;;;;;;;;;;;;18.88;35.61;100286.47;4409127;32;20086;-56
2021/03/25 12:12:30;;;;;;;;;;;;;;;18.97;35.58;100288.41;4416903;32;20025;-53
2021/03/25 12:14:56;;;;;;;;;;;;;;;19.06;35.47;100275.34;4417161;32;20009;-53
2021/03/25 12:17:22;;;;;;;;;;;;;;;19.08;35.45;100268.38;4416739;32;19942;-53
2021/03/25 12:19:48;;;;;;;;;;;;;;;19.12;35.47;100269.28;4400921;32;19947;-53
2021/03/25 12:22:14;;;;;;;;;;;;;;;19.14;35.33;100269.31;4385962;32;19955;-52
2021/03/25 12:24:40;;;;;;;;;;;;;;;19.15;35.35;100272.00;4390790;32;19950;-51
2021/03/25 12:27:06;;;;;;;;;;;;;;;19.21;35.36;100265.94;4401507;32;20402;-54